Time;durP1;ratioP1;P1;durP2;ratioP2;P2;SDS_P1;SDS_P2;PMS_P1;PMS_P2;Temp;Humidity;BMP_temperature;BMP_pressure;BME280_temperature;BME280_humidity;BME280_pressure;Samples;Min_cycle;Max_cycle;Signal;HPM_P1;HPM_P2
2023/03/18 00:00:32;;;;;;;8.63;7.00;;;;;;;11.12;83.79;97667.47;4127326;28;20686;-87
2023/03/18 00:02:36;;;;;;;8.60;6.87;;;;;;;11.04;84.82;97673.28;4119596;28;20670;-87
2023/03/18 00:04:39;;;;;;;13.50;8.07;;;;;;;11.01;84.23;97668.31;4123383;28;20672;-87
2023/03/18 00:06:43;;;;;;;9.83;7.80;;;;;;;10.99;83.62;97662.38;4109185;28;20703;-87
2023/03/18 00:08:47;;;;;;;10.67;8.30;;;;;;;10.98;84.03;97658.09;4123947;28;20663;-87
2023/03/18 00:10:52;;;;;;;10.87;7.47;;;;;;;10.97;84.93;97660.81;4113433;28;20634;-87
2023/03/18 00:12:55;;;;;;;14.47;8.17;;;;;;;10.92;84.33;97668.19;4124130;28;20647;-87
2023/03/18 00:14:58;;;;;;;10.50;7.90;;;;;;;10.91;83.60;97664.72;4116617;28;20628;-87
2023/03/18 00:17:01;;;;;;;9.80;7.60;;;;;;;10.89;84.95;97657.97;4122561;28;20639;-87
2023/03/18 00:19:05;;;;;;;9.87;7.90;;;;;;;10.87;83.88;97659.88;4127626;28;20694;-87
2023/03/18 00:21:09;;;;;;;10.67;8.00;;;;;;;10.83;84.68;97661.88;4115741;28;20763;-87
2023/03/18 00:23:12;;;;;;;11.60;8.07;;;;;;;10.81;84.14;97676.81;4117999;28;20740;-87
2023/03/18 00:25:16;;;;;;;11.77;9.03;;;;;;;10.80;84.33;97676.94;4110609;28;21053;-87
2023/03/18 00:27:20;;;;;;;13.87;9.03;;;;;;;10.77;84.73;97677.16;4124859;28;21215;-87
2023/03/18 00:29:24;;;;;;;10.30;8.50;;;;;;;10.73;84.54;97685.34;4121676;28;20685;-87
2023/03/18 00:31:28;;;;;;;13.60;9.50;;;;;;;10.71;84.88;97680.25;4135529;28;21260;-87
2023/03/18 00:33:33;;;;;;;12.40;9.23;;;;;;;10.70;84.67;97677.75;4121369;28;20639;-87
2023/03/18 00:35:36;;;;;;;11.50;9.03;;;;;;;10.70;85.04;97688.19;4124442;28;20976;-87
2023/03/18 00:37:41;;;;;;;12.47;9.27;;;;;;;10.67;85.03;97684.00;4125480;28;21349;-87
2023/03/18 00:39:45;;;;;;;14.07;9.10;;;;;;;10.66;84.92;97686.72;4110143;28;21070;-87
2023/03/18 00:41:48;;;;;;;12.67;10.07;;;;;;;10.65;85.26;97695.53;4125291;28;20655;-87
2023/03/18 00:43:53;;;;;;;12.87;8.80;;;;;;;10.60;84.75;97688.03;4136001;28;20658;-87
2023/03/18 00:45:57;;;;;;;10.97;8.30;;;;;;;10.60;84.85;97693.25;4134949;28;20628;-87
2023/03/18 00:48:00;;;;;;;14.73;8.53;;;;;;;10.57;85.83;97682.22;4117831;28;21001;-87
2023/03/18 00:50:05;;;;;;;10.27;7.33;;;;;;;10.56;85.11;97683.16;4117230;28;20644;-87
2023/03/18 00:52:08;;;;;;;11.37;8.00;;;;;;;10.53;85.22;97680.78;4134466;28;21225;-87
2023/03/18 00:54:15;;;;;;;10.60;8.07;;;;;;;10.52;85.48;97686.94;4127494;28;20671;-87
2023/03/18 00:56:20;;;;;;;13.80;8.13;;;;;;;10.48;85.03;97683.75;4122046;28;20644;-87
2023/03/18 00:58:24;;;;;;;12.43;8.70;;;;;;;10.48;85.71;97686.34;4120853;28;21050;-86
2023/03/18 01:00:29;;;;;;;12.40;8.37;;;;;;;10.45;85.29;97688.38;4115391;28;20638;-87
2023/03/18 01:02:33;;;;;;;12.03;7.83;;;;;;;10.44;85.35;97697.13;4134499;28;20716;-87
2023/03/18 01:04:37;;;;;;;9.50;7.33;;;;;;;10.44;85.63;97697.13;4108680;28;21020;-87
2023/03/18 01:06:40;;;;;;;12.33;8.47;;;;;;;10.43;85.64;97693.69;4119513;28;21272;-86
2023/03/18 01:08:44;;;;;;;9.63;7.70;;;;;;;10.41;86.81;97710.38;4117325;28;20660;-87
2023/03/18 01:10:48;;;;;;;12.70;7.80;;;;;;;10.42;85.96;97709.44;4105372;28;21295;-87
2023/03/18 01:12:51;;;;;;;12.47;7.30;;;;;;;10.42;85.66;97712.06;4125137;28;21012;-87
2023/03/18 01:14:54;;;;;;;8.40;7.17;;;;;;;10.38;85.57;97705.38;4121885;28;20643;-87
2023/03/18 01:16:58;;;;;;;9.87;7.10;;;;;;;10.34;86.17;97707.41;4124400;28;20651;-87
2023/03/18 01:19:03;;;;;;;13.17;7.70;;;;;;;10.32;85.98;97702.41;4119385;28;20631;-86
2023/03/18 01:21:08;;;;;;;8.43;6.40;;;;;;;10.32;85.93;97708.44;4112268;28;20646;-87
2023/03/18 01:23:17;;;;;;;8.87;7.10;;;;;;;10.32;85.65;97702.41;4117761;28;20636;-87
2023/03/18 01:25:20;;;;;;;9.33;7.13;;;;;;;10.30;85.96;97699.91;4106155;28;20688;-86
2023/03/18 01:27:27;;;;;;;10.13;6.70;;;;;;;10.31;85.95;97706.78;4132322;28;20635;-87
2023/03/18 01:29:32;;;;;;;9.20;6.47;;;;;;;10.27;86.12;97699.28;4121535;28;20654;-87
2023/03/18 01:31:36;;;;;;;9.77;6.67;;;;;;;10.25;86.15;97696.78;4123993;28;20743;-87
2023/03/18 01:33:47;;;;;;;10.50;6.70;;;;;;;10.24;86.39;97700.38;4109484;28;20698;-87
2023/03/18 01:35:54;;;;;;;8.97;6.83;;;;;;;10.26;86.18;97705.47;4107903;28;20656;-87
2023/03/18 01:38:00;;;;;;;8.77;6.87;;;;;;;10.24;86.03;97710.78;4135529;28;20634;-87
2023/03/18 01:40:07;;;;;;;8.50;6.30;;;;;;;10.23;86.30;97708.28;4105178;28;20641;-87
2023/03/18 01:42:10;;;;;;;8.80;6.60;;;;;;;10.22;86.08;97706.63;4121812;28;20638;-87
2023/03/18 01:44:16;;;;;;;8.70;5.90;;;;;;;10.20;85.88;97706.72;4117749;28;20631;-87
2023/03/18 01:46:33;;;;;;;7.67;6.43;;;;;;;10.20;86.03;97716.34;4113674;28;20650;-87
2023/03/18 01:48:39;;;;;;;8.70;6.10;;;;;;;10.19;86.11;97712.06;4119157;28;20648;-87
2023/03/18 01:50:47;;;;;;;8.00;6.87;;;;;;;10.13;86.30;97713.34;4106527;28;20647;-87
2023/03/18 01:52:54;;;;;;;10.50;6.33;;;;;;;10.14;86.27;97709.78;4119873;28;20645;-87
2023/03/18 01:55:00;;;;;;;11.17;7.33;;;;;;;10.10;86.21;97708.38;4119590;28;20696;-87
2023/03/18 01:57:04;;;;;;;9.77;6.63;;;;;;;10.10;86.75;97697.94;4116378;28;20632;-87
2023/03/18 01:59:08;;;;;;;7.40;5.90;;;;;;;10.09;86.56;97698.06;4116396;28;20685;-87
2023/03/18 02:01:14;;;;;;;10.30;6.37;;;;;;;10.08;86.40;97696.38;4136892;28;21676;-87
2023/03/18 02:03:18;;;;;;;7.80;6.53;;;;;;;10.08;86.44;97694.59;4119230;28;20639;-86
2023/03/18 02:05:23;;;;;;;8.40;6.33;;;;;;;10.07;86.61;97699.91;4137207;28;20669;-87
2023/03/18 02:07:29;;;;;;;8.80;6.73;;;;;;;10.05;86.77;97700.03;4117135;28;20629;-87
2023/03/18 02:09:33;;;;;;;11.10;6.70;;;;;;;10.04;86.04;97705.34;4143483;28;20665;-87
2023/03/18 02:11:41;;;;;;;7.80;5.90;;;;;;;10.02;86.73;97700.25;4104926;28;20667;-87
2023/03/18 02:13:45;;;;;;;11.30;7.40;;;;;;;10.05;86.76;97704.41;4107257;28;20646;-86
2023/03/18 02:15:52;;;;;;;11.60;7.03;;;;;;;10.04;86.87;97697.53;4116705;28;20628;-87
2023/03/18 02:17:59;;;;;;;8.67;6.17;;;;;;;10.03;86.99;97696.72;4131806;28;20750;-86
2023/03/18 02:20:09;;;;;;;10.13;6.60;;;;;;;10.01;86.83;97698.59;4132785;28;20733;-87
2023/03/18 02:22:23;;;;;;;8.57;6.87;;;;;;;9.99;87.05;97690.03;4112636;28;20639;-87
2023/03/18 02:24:41;;;;;;;8.17;7.00;;;;;;;9.97;87.14;97696.34;4117892;28;20998;-87
2023/03/18 02:26:54;;;;;;;8.77;6.47;;;;;;;9.95;87.82;97691.22;4117104;28;20640;-87
2023/03/18 02:29:06;;;;;;;12.83;6.43;;;;;;;9.96;87.38;97702.47;4121127;28;20761;-87
2023/03/18 02:31:19;;;;;;;11.75;6.65;;;;;;;9.93;87.48;97695.69;4126160;28;20635;-87
2023/03/18 02:33:24;;;;;;;7.57;6.47;;;;;;;9.93;87.10;97695.69;4135543;28;20212;-87
2023/03/18 02:35:29;;;;;;;8.83;6.27;;;;;;;9.92;86.93;97699.22;4125163;28;20732;-87
2023/03/18 02:37:35;;;;;;;8.07;6.75;;;;;;;9.91;87.36;97696.75;4135210;28;20697;-87
2023/03/18 02:39:39;;;;;;;7.97;5.97;;;;;;;9.87;86.92;97693.50;4121983;28;20299;-87
2023/03/18 02:41:43;;;;;;;8.13;6.43;;;;;;;9.86;87.45;97699.69;4140630;28;20661;-87
2023/03/18 02:43:47;;;;;;;8.20;6.37;;;;;;;9.84;87.91;97705.09;4129164;28;20646;-87
2023/03/18 02:46:01;;;;;;;11.73;6.05;;;;;;;9.82;87.71;97707.81;4121144;28;20670;-87
2023/03/18 02:48:05;;;;;;;13.63;7.30;;;;;;;9.77;86.75;97709.06;4135972;28;20417;-86
2023/03/18 02:50:10;;;;;;;6.77;5.90;;;;;;;9.73;87.89;97713.69;4119706;28;20704;-87
2023/03/18 02:52:13;;;;;;;6.57;5.82;;;;;;;9.71;86.17;97712.09;4124036;28;20675;-86
2023/03/18 02:54:21;;;;;;;7.60;5.90;;;;;;;9.70;87.38;97713.06;4137490;28;20215;-87
2023/03/18 02:56:24;;;;;;;7.50;5.20;;;;;;;9.71;86.95;97710.34;4137193;28;21124;-87
2023/03/18 02:58:27;;;;;;;11.30;6.40;;;;;;;9.69;87.74;97716.59;4122387;28;20643;-87
2023/03/18 03:00:32;;;;;;;7.90;5.60;;;;;;;9.66;87.83;97714.22;4110915;28;21112;-87
2023/03/18 03:02:37;;;;;;;8.63;5.57;;;;;;;9.64;87.20;97718.72;4116463;28;21198;-87
2023/03/18 03:04:42;;;;;;;12.95;6.15;;;;;;;9.60;88.00;97722.47;4102561;28;20733;-87
2023/03/18 03:06:45;;;;;;;6.70;5.65;;;;;;;9.57;87.89;97722.66;4107021;28;20208;-87
2023/03/18 03:08:52;;;;;;;6.90;5.50;;;;;;;9.48;86.99;97711.13;4128901;28;20203;-87
2023/03/18 03:10:56;;;;;;;6.37;5.60;;;;;;;9.40;86.48;97710.00;4117914;28;20703;-87
2023/03/18 03:12:59;;;;;;;9.13;6.47;;;;;;;9.34;86.79;97700.03;4108156;28;20728;-87
2023/03/18 03:15:02;;;;;;;8.80;6.50;;;;;;;9.34;87.54;97712.22;4122957;28;20227;-87
2023/03/18 03:17:06;;;;;;;8.60;5.40;;;;;;;9.36;88.04;97713.75;4119201;28;20273;-87
2023/03/18 03:19:11;;;;;;;6.82;6.13;;;;;;;9.31;87.31;97713.25;4122833;28;20631;-88
2023/03/18 03:21:15;;;;;;;7.85;6.45;;;;;;;9.27;88.35;97723.97;4128312;28;20262;-87
2023/03/18 03:23:19;;;;;;;7.75;5.63;;;;;;;9.25;88.50;97718.88;4136240;28;21609;-87
2023/03/18 03:25:25;;;;;;;7.00;5.23;;;;;;;9.27;88.77;97721.38;4107973;28;20209;-86
2023/03/18 03:27:29;;;;;;;9.18;5.80;;;;;;;9.22;88.32;97721.69;4122679;28;20624;-87
2023/03/18 03:29:32;;;;;;;9.40;6.20;;;;;;;9.21;88.50;97719.19;4121787;28;20222;-87
2023/03/18 03:31:35;;;;;;;9.37;6.67;;;;;;;9.21;87.69;97721.78;4107585;28;20613;-87
2023/03/18 03:33:42;;;;;;;8.20;6.22;;;;;;;9.19;87.67;97731.47;4122234;28;20628;-86
2023/03/18 03:35:47;;;;;;;10.18;6.90;;;;;;;9.17;87.31;97744.59;4105586;28;20224;-87
2023/03/18 03:37:50;;;;;;;7.83;6.53;;;;;;;9.15;87.93;97735.22;4131926;28;20200;-87
2023/03/18 03:39:53;;;;;;;9.57;7.45;;;;;;;9.13;87.89;97732.72;4141476;28;21016;-87
2023/03/18 03:41:57;;;;;;;8.30;5.97;;;;;;;9.14;87.67;97733.53;4130194;28;20316;-87
2023/03/18 03:44:00;;;;;;;10.40;6.40;;;;;;;9.12;87.68;97744.06;4109649;28;20635;-87
2023/03/18 03:46:04;;;;;;;11.20;6.90;;;;;;;9.11;87.47;97739.81;4105807;28;20204;-87
2023/03/18 03:48:07;;;;;;;8.23;6.07;;;;;;;9.10;88.14;97748.53;4129106;28;20639;-87
2023/03/18 03:50:12;;;;;;;8.82;6.95;;;;;;;9.11;87.76;97750.22;4125111;28;20238;-87
2023/03/18 03:52:18;;;;;;;8.33;6.27;;;;;;;9.09;88.61;97752.06;4122476;28;20717;-87
2023/03/18 03:54:24;;;;;;;10.60;6.57;;;;;;;9.08;88.36;97750.41;4127431;28;20756;-87
2023/03/18 03:56:27;;;;;;;7.70;5.85;;;;;;;9.06;87.44;97744.47;4120672;28;20654;-87
2023/03/18 03:58:31;;;;;;;7.35;5.50;;;;;;;9.02;87.37;97750.84;4125547;28;20223;-87
2023/03/18 04:00:34;;;;;;;12.60;5.70;;;;;;;8.98;88.35;97754.56;4111060;28;20241;-87
2023/03/18 04:02:37;;;;;;;8.30;6.03;;;;;;;8.99;87.56;97745.00;4107159;28;20205;-87
2023/03/18 04:04:40;;;;;;;7.95;5.97;;;;;;;9.00;88.19;97750.09;4128200;28;21339;-87
2023/03/18 04:06:51;;;;;;;7.97;5.90;;;;;;;8.96;87.66;97753.03;4124246;28;20306;-87
2023/03/18 04:08:55;;;;;;;8.97;6.60;;;;;;;8.94;87.61;97758.34;4136994;28;20227;-87
2023/03/18 04:10:58;;;;;;;8.97;6.40;;;;;;;8.92;87.90;97752.38;4113068;28;20679;-87
2023/03/18 04:13:02;;;;;;;9.97;6.43;;;;;;;8.93;89.15;97761.84;4122035;28;20635;-87
2023/03/18 04:15:06;;;;;;;8.70;6.03;;;;;;;8.93;89.51;97761.84;4120283;28;20651;-87
2023/03/18 04:17:10;;;;;;;8.18;5.95;;;;;;;8.94;88.01;97770.47;4107948;28;20220;-87
2023/03/18 04:19:13;;;;;;;7.57;5.60;;;;;;;8.93;88.55;97766.25;4104984;28;20214;-87
2023/03/18 04:21:17;;;;;;;8.53;6.10;;;;;;;8.92;87.71;97763.75;4104871;28;20208;-87
2023/03/18 04:23:27;;;;;;;9.77;5.78;;;;;;;8.88;88.70;97752.69;4106566;28;20647;-87
2023/03/18 04:25:34;;;;;;;8.20;5.63;;;;;;;8.88;88.87;97757.88;4105265;28;20213;-87
2023/03/18 04:27:37;;;;;;;6.22;5.28;;;;;;;8.87;88.67;97755.38;4104163;28;20751;-87
2023/03/18 04:29:43;;;;;;;6.70;5.20;;;;;;;8.85;89.20;97757.28;4122496;28;20204;-87
2023/03/18 04:31:46;;;;;;;8.10;5.83;;;;;;;8.84;87.63;97753.00;4134433;28;20713;-87
2023/03/18 04:33:50;;;;;;;7.07;5.38;;;;;;;8.83;88.00;97753.94;4119741;28;20638;-87
2023/03/18 04:35:53;;;;;;;6.45;5.20;;;;;;;8.82;87.54;97757.47;4098800;28;20252;-87
2023/03/18 04:37:56;;;;;;;6.30;5.20;;;;;;;8.81;89.09;97761.84;4104988;28;20216;-87
2023/03/18 04:39:59;;;;;;;6.90;5.45;;;;;;;8.77;88.26;97765.56;4120791;28;20354;-87
2023/03/18 04:42:05;;;;;;;6.80;5.15;;;;;;;8.76;88.11;97763.91;4129180;28;20886;-87
2023/03/18 04:44:08;;;;;;;6.70;5.10;;;;;;;8.71;88.80;97770.34;4118449;28;20223;-87
2023/03/18 04:46:16;;;;;;;6.60;5.05;;;;;;;8.68;88.57;97765.38;4110375;28;20243;-87
2023/03/18 04:48:22;;;;;;;7.30;5.30;;;;;;;8.67;88.59;97763.69;4106509;28;20200;-87
2023/03/18 04:50:27;;;;;;;7.32;5.20;;;;;;;8.66;88.58;97769.81;4135330;28;20294;-87
2023/03/18 04:52:30;;;;;;;10.13;5.28;;;;;;;8.65;88.64;97762.97;4127200;28;20203;-87
2023/03/18 04:54:36;;;;;;;8.00;5.30;;;;;;;8.63;89.36;97765.66;4116683;28;20268;-87
2023/03/18 04:56:40;;;;;;;7.03;5.22;;;;;;;8.63;89.55;97773.47;4121013;28;20219;-86
2023/03/18 04:58:45;;;;;;;7.45;5.50;;;;;;;8.65;88.03;97770.75;4106349;28;20211;-86
2023/03/18 05:00:55;;;;;;;9.05;5.95;;;;;;;8.65;88.13;97770.75;4106094;28;20267;-86
2023/03/18 05:03:06;;;;;;;7.97;5.40;;;;;;;8.62;88.32;97766.59;4121295;28;20207;-85
2023/03/18 05:05:10;;;;;;;9.82;7.15;;;;;;;8.61;89.51;97774.47;4118788;28;20239;-85
2023/03/18 05:07:20;;;;;;;9.02;5.60;;;;;;;8.59;89.30;97771.16;4103409;28;20248;-85
2023/03/18 05:09:33;;;;;;;7.63;5.63;;;;;;;8.56;88.72;97771.38;4104886;28;20264;-85
2023/03/18 05:11:37;;;;;;;7.53;5.35;;;;;;;8.55;89.30;97773.13;4110190;28;20220;-85
2023/03/18 05:14:04;;;;;;;9.43;5.37;;;;;;;8.52;88.04;97772.47;4125215;28;20719;-85
2023/03/18 05:16:14;;;;;;;6.67;5.03;;;;;;;8.52;88.97;97769.88;4123516;28;20661;-85
2023/03/18 05:18:18;;;;;;;7.38;5.82;;;;;;;8.50;87.60;97771.75;4129083;28;20630;-85
2023/03/18 05:20:24;;;;;;;8.55;5.75;;;;;;;8.49;88.71;97772.69;4126626;28;20673;-85
2023/03/18 05:22:28;;;;;;;9.20;5.85;;;;;;;8.45;87.63;97773.84;4120350;28;20287;-85
2023/03/18 05:24:46;;;;;;;8.02;5.47;;;;;;;8.40;89.13;97768.09;4123998;28;20212;-85
2023/03/18 05:26:49;;;;;;;8.32;5.68;;;;;;;8.39;88.86;97769.03;4120186;28;20290;-86
2023/03/18 05:28:56;;;;;;;7.07;5.20;;;;;;;8.36;87.91;97769.22;4115655;28;20754;-85
2023/03/18 05:31:15;;;;;;;7.68;5.35;;;;;;;8.33;88.35;97766.84;4126117;28;20242;-86
2023/03/18 05:33:19;;;;;;;6.80;5.53;;;;;;;8.32;88.06;97772.13;4123306;28;20246;-86
2023/03/18 05:35:30;;;;;;;8.00;5.75;;;;;;;8.30;89.47;97767.03;4135251;28;20641;-86
2023/03/18 05:37:34;;;;;;;10.25;6.07;;;;;;;8.31;87.86;97762.66;4119952;28;20233;-86
2023/03/18 05:39:41;;;;;;;6.50;5.55;;;;;;;8.28;88.90;97766.28;4138856;28;20231;-86
2023/03/18 05:41:49;;;;;;;6.53;5.13;;;;;;;8.27;89.15;97772.41;4127227;28;20301;-86
2023/03/18 05:43:59;;;;;;;8.05;5.60;;;;;;;8.27;88.69;97774.16;4137718;28;20210;-86
2023/03/18 05:46:04;;;;;;;8.43;5.70;;;;;;;8.26;88.00;97773.34;4118491;28;20214;-86
2023/03/18 05:48:22;;;;;;;8.80;5.32;;;;;;;8.26;88.03;97781.13;4120453;28;20228;-86
2023/03/18 05:50:30;;;;;;;7.90;5.30;;;;;;;8.28;88.27;97779.25;4139704;28;20370;-86
2023/03/18 05:52:35;;;;;;;5.10;4.55;;;;;;;8.28;88.26;97786.22;4103726;28;20683;-86
2023/03/18 05:54:41;;;;;;;5.93;4.93;;;;;;;8.30;88.83;97777.41;4115006;28;20300;-86
2023/03/18 05:56:45;;;;;;;9.38;4.60;;;;;;;8.27;88.40;97776.75;4133547;28;21248;-86
2023/03/18 05:58:48;;;;;;;7.82;5.18;;;;;;;8.26;87.70;97778.53;4118928;28;20206;-86
2023/03/18 06:01:02;;;;;;;5.68;4.60;;;;;;;8.27;88.91;97780.22;4120870;28;20208;-86
2023/03/18 06:03:05;;;;;;;6.28;4.80;;;;;;;8.25;87.66;97782.06;4131187;28;20648;-86
2023/03/18 06:05:11;;;;;;;6.70;5.13;;;;;;;8.26;88.65;97780.31;4135409;28;20274;-86
2023/03/18 06:07:14;;;;;;;7.50;5.10;;;;;;;8.26;87.87;97780.31;4126180;28;20848;-86
2023/03/18 06:09:17;;;;;;;6.55;5.00;;;;;;;8.30;87.98;97784.34;4123223;28;20311;-86
2023/03/18 06:11:22;;;;;;;7.97;5.20;;;;;;;8.30;88.00;97793.00;4123011;28;20267;-86
2023/03/18 06:13:26;;;;;;;6.38;4.80;;;;;;;8.33;87.85;97779.81;4124255;28;20649;-86
2023/03/18 06:15:30;;;;;;;9.82;5.10;;;;;;;8.36;88.43;97792.63;4103456;28;20201;-86
2023/03/18 06:17:35;;;;;;;5.47;4.78;;;;;;;8.38;87.58;97789.91;4109553;28;20211;-86
2023/03/18 06:19:38;;;;;;;7.93;4.82;;;;;;;8.44;87.92;97799.91;4138010;28;20208;-86
2023/03/18 06:21:44;;;;;;;7.40;5.18;;;;;;;8.45;88.04;97792.03;4137388;28;20666;-86
2023/03/18 06:23:48;;;;;;;7.35;4.95;;;;;;;8.46;88.60;97793.66;4136640;28;20211;-86
2023/03/18 06:25:51;;;;;;;7.30;5.20;;;;;;;8.45;88.28;97790.25;4138743;28;20250;-86
2023/03/18 06:27:59;;;;;;;11.02;4.90;;;;;;;8.48;88.33;97791.81;4106548;28;20200;-86
2023/03/18 06:30:05;;;;;;;6.85;6.15;;;;;;;8.52;88.82;97793.28;4136191;28;20221;-86
2023/03/18 06:32:10;;;;;;;5.35;4.57;;;;;;;8.51;88.41;97799.44;4119941;28;20255;-86
2023/03/18 06:34:14;;;;;;;7.90;5.25;;;;;;;8.49;88.11;97802.13;4105356;28;20709;-86
2023/03/18 06:36:22;;;;;;;6.50;5.00;;;;;;;8.52;89.34;97806.25;4119134;28;20232;-87
2023/03/18 06:38:28;;;;;;;7.07;5.03;;;;;;;8.57;87.65;97804.22;4120513;28;20308;-86
2023/03/18 06:40:33;;;;;;;7.40;5.73;;;;;;;8.55;88.89;97811.25;4112822;28;20635;-86
2023/03/18 06:42:37;;;;;;;6.63;5.18;;;;;;;8.57;87.69;97812.03;4137895;28;20642;-86
2023/03/18 06:44:49;;;;;;;6.20;4.90;;;;;;;8.63;87.52;97809.00;4127507;28;20726;-86
2023/03/18 06:46:58;;;;;;;9.90;5.60;;;;;;;8.67;87.44;97810.47;4108924;28;20204;-86
2023/03/18 06:49:03;;;;;;;9.30;5.25;;;;;;;8.73;87.97;97810.91;4110159;28;20201;-86
2023/03/18 06:51:11;;;;;;;8.45;5.10;;;;;;;8.87;88.09;97820.41;4118177;28;20306;-86
2023/03/18 06:53:16;;;;;;;6.90;5.20;;;;;;;9.05;87.88;97818.25;4106012;28;20327;-86
2023/03/18 06:55:22;;;;;;;8.25;5.25;;;;;;;9.24;88.13;97830.84;4138654;28;20211;-86
2023/03/18 06:57:26;;;;;;;7.45;5.30;;;;;;;9.35;87.78;97824.00;4138218;28;20215;-86
2023/03/18 06:59:30;;;;;;;7.10;5.07;;;;;;;9.42;85.78;97825.22;4127705;28;20665;-86
2023/03/18 07:01:33;;;;;;;6.68;4.85;;;;;;;9.49;85.71;97818.69;4101422;28;20687;-86
2023/03/18 07:03:37;;;;;;;7.18;5.20;;;;;;;9.53;86.30;97828.78;4135321;28;20280;-86
2023/03/18 07:05:41;;;;;;;5.97;4.88;;;;;;;9.59;86.20;97825.78;4136439;28;20229;-87
2023/03/18 07:07:47;;;;;;;8.68;4.75;;;;;;;9.64;85.51;97834.09;4130892;28;20247;-86
2023/03/18 07:09:51;;;;;;;6.20;4.60;;;;;;;9.69;85.07;97832.00;4134347;28;20279;-86
2023/03/18 07:11:56;;;;;;;8.13;4.83;;;;;;;9.76;85.66;97835.84;4107005;28;20235;-86
2023/03/18 07:14:00;;;;;;;5.50;4.65;;;;;;;9.83;85.31;97836.25;4126868;28;20745;-86
2023/03/18 07:16:07;;;;;;;6.47;5.00;;;;;;;9.87;84.47;97836.75;4127055;28;20307;-86
2023/03/18 07:18:11;;;;;;;7.73;5.00;;;;;;;9.91;84.97;97838.22;4128396;28;20211;-86
2023/03/18 07:20:15;;;;;;;6.50;4.83;;;;;;;10.02;84.93;97834.88;4111809;28;20636;-87
2023/03/18 07:22:18;;;;;;;9.03;5.60;;;;;;;10.39;85.94;97848.66;4114060;28;20727;-86
2023/03/18 07:24:22;;;;;;;6.15;5.32;;;;;;;10.71;83.44;97849.75;4126164;28;20644;-86
2023/03/18 07:26:26;;;;;;;7.40;6.60;;;;;;;11.02;83.20;97857.84;4122527;28;20311;-86
2023/03/18 07:28:31;;;;;;;13.17;10.20;;;;;;;11.30;82.41;97860.06;4103725;28;21092;-86
2023/03/18 07:30:35;;;;;;;6.57;5.63;;;;;;;11.57;83.60;97858.00;4119986;28;21174;-89
2023/03/18 07:32:38;;;;;;;9.33;5.77;;;;;;;11.69;80.70;97855.28;4137136;28;21283;-89
2023/03/18 07:34:41;;;;;;;8.37;5.80;;;;;;;11.90;80.13;97851.84;4133006;28;21107;-88
2023/03/18 07:36:44;;;;;;;6.73;5.50;;;;;;;12.08;80.29;97857.47;4106092;28;20781;-87
2023/03/18 07:38:48;;;;;;;10.03;5.37;;;;;;;12.25;77.84;97858.63;4129745;28;20652;-88
2023/03/18 07:40:51;;;;;;;6.97;5.23;;;;;;;12.29;77.99;97864.44;4135239;28;20729;-86
2023/03/18 07:42:57;;;;;;;10.93;5.67;;;;;;;12.33;76.33;97864.09;4118156;28;20659;-87
2023/03/18 07:45:01;;;;;;;7.90;5.20;;;;;;;12.54;79.20;97861.53;4119950;28;20646;-86
2023/03/18 07:47:04;;;;;;;10.93;5.20;;;;;;;12.77;78.62;97870.03;4114209;28;20644;-89
2023/03/18 07:49:08;;;;;;;7.50;5.60;;;;;;;12.90;78.06;97869.91;4124866;28;21446;-88
2023/03/18 07:51:11;;;;;;;7.00;5.30;;;;;;;12.93;78.35;97865.28;4127107;28;20646;-88
2023/03/18 07:53:14;;;;;;;7.27;5.60;;;;;;;13.21;78.47;97867.28;4137179;28;20660;-87
2023/03/18 07:55:18;;;;;;;8.10;5.30;;;;;;;13.46;77.79;97877.41;4122324;28;20638;-87
2023/03/18 07:57:22;;;;;;;8.27;6.13;;;;;;;13.61;74.85;97868.28;4130990;28;20647;-87
2023/03/18 07:59:26;;;;;;;7.10;5.03;;;;;;;13.73;74.86;97874.13;4130128;28;20635;-87
2023/03/18 08:01:31;;;;;;;7.10;4.60;;;;;;;13.91;74.06;97877.81;4124004;28;20638;-88
2023/03/18 08:03:35;;;;;;;6.67;5.10;;;;;;;14.12;73.27;97881.28;4125680;28;20624;-88
2023/03/18 08:05:38;;;;;;;7.47;5.00;;;;;;;14.22;72.16;97871.63;4120793;28;20665;-87
2023/03/18 08:07:41;;;;;;;8.90;4.33;;;;;;;14.32;72.85;97878.59;4104797;28;20664;-88
2023/03/18 08:09:44;;;;;;;6.47;5.07;;;;;;;14.52;71.85;97882.09;4121752;28;20631;-87
2023/03/18 08:11:47;;;;;;;5.23;4.73;;;;;;;14.67;72.19;97882.44;4119939;28;20643;-87
2023/03/18 08:13:50;;;;;;;6.00;4.50;;;;;;;14.83;71.51;97885.34;4105787;28;21111;-86
2023/03/18 08:15:54;;;;;;;5.30;4.57;;;;;;;14.99;71.90;97893.53;4119780;28;20633;-86
2023/03/18 08:17:59;;;;;;;7.70;4.67;;;;;;;15.19;69.71;97898.69;4120633;28;20655;-85
2023/03/18 08:20:03;;;;;;;8.50;5.27;;;;;;;15.21;69.74;97891.50;4113788;28;21262;-85
2023/03/18 08:22:07;;;;;;;5.60;4.33;;;;;;;15.36;69.78;97884.84;4121980;28;20685;-88
2023/03/18 08:24:10;;;;;;;10.90;4.80;;;;;;;15.53;69.32;97891.22;4116889;28;20639;-88
2023/03/18 08:26:13;;;;;;;6.83;4.80;;;;;;;15.61;67.94;97887.75;4127113;28;20640;-87
2023/03/18 08:28:17;;;;;;;5.40;4.40;;;;;;;15.75;67.50;97895.19;4116169;28;20664;-88
2023/03/18 08:30:24;;;;;;;4.93;4.10;;;;;;;15.83;67.84;97892.72;4112350;28;20757;-88
2023/03/18 08:32:27;;;;;;;5.30;3.87;;;;;;;15.99;69.54;97903.47;4122704;28;20625;-87
2023/03/18 08:34:31;;;;;;;3.90;3.13;;;;;;;16.09;66.64;97894.56;4125776;28;20711;-88
2023/03/18 08:36:34;;;;;;;8.13;3.53;;;;;;;16.15;65.09;97885.28;4122563;28;20984;-88
2023/03/18 08:38:38;;;;;;;6.47;4.27;;;;;;;16.22;66.73;97884.59;4121100;28;20641;-87
2023/03/18 08:40:41;;;;;;;4.60;3.30;;;;;;;16.31;64.95;97891.63;4124657;28;20673;-88
2023/03/18 08:42:45;;;;;;;5.57;4.00;;;;;;;16.42;64.89;97890.59;4123381;28;20633;-87
2023/03/18 08:44:49;;;;;;;5.67;3.73;;;;;;;16.50;64.74;97897.63;4119945;28;20738;-87
2023/03/18 08:46:53;;;;;;;6.00;5.40;;;;;;;16.70;65.65;97895.72;4119391;28;21236;-88
2023/03/18 08:48:56;;;;;;;4.47;3.50;;;;;;;16.88;67.13;97901.84;4125585;28;20654;-89
2023/03/18 08:51:02;;;;;;;5.80;3.97;;;;;;;17.08;66.14;97901.59;4117842;28;20674;-89
2023/03/18 08:53:05;;;;;;;7.37;3.83;;;;;;;17.14;64.31;97895.72;4140269;28;20650;-88
2023/03/18 08:55:09;;;;;;;4.57;3.40;;;;;;;17.21;63.85;97899.44;4120323;28;20641;-87
2023/03/18 08:57:12;;;;;;;5.37;3.20;;;;;;;17.35;63.20;97894.50;4122281;28;20649;-87
2023/03/18 08:59:16;;;;;;;4.87;3.20;;;;;;;17.44;63.73;97898.00;4126592;28;20620;-87
2023/03/18 09:01:20;;;;;;;6.47;3.30;;;;;;;17.60;63.09;97889.25;4125819;28;20649;-87
2023/03/18 09:03:24;;;;;;;6.80;3.53;;;;;;;17.70;61.43;97886.53;4130200;28;21478;-87
2023/03/18 09:05:31;;;;;;;7.33;3.90;;;;;;;17.73;60.56;97889.69;4114598;28;20655;-89
2023/03/18 09:07:36;;;;;;;5.33;3.80;;;;;;;17.90;64.49;97888.00;4117863;28;20650;-86
2023/03/18 09:09:39;;;;;;;4.70;3.77;;;;;;;18.11;61.91;97881.38;4116945;28;20638;-87
2023/03/18 09:11:46;;;;;;;5.30;3.50;;;;;;;18.32;61.50;97881.84;4124027;28;20655;-88
2023/03/18 09:13:50;;;;;;;3.43;2.27;;;;;;;18.49;61.16;97887.06;4122421;28;20662;-87
2023/03/18 09:15:53;;;;;;;3.93;2.43;;;;;;;18.62;58.67;97888.25;4139275;28;20647;-88
2023/03/18 09:17:56;;;;;;;4.17;2.27;;;;;;;18.70;59.11;97880.41;4141881;28;20681;-88
2023/03/18 09:20:15;;;;;;;2.90;2.03;;;;;;;18.74;58.08;97879.06;4126551;28;20634;-88
2023/03/18 09:22:18;;;;;;;3.40;2.23;;;;;;;18.78;56.41;97877.78;4124224;28;20989;-87
2023/03/18 09:24:22;;;;;;;5.17;2.50;;;;;;;18.92;59.15;97880.59;4109097;28;21220;-88
2023/03/18 09:26:26;;;;;;;4.87;2.73;;;;;;;19.05;60.50;97886.31;4124372;28;21306;-88
2023/03/18 09:28:29;;;;;;;4.00;2.80;;;;;;;19.15;58.66;97879.03;4135696;28;20687;-87
2023/03/18 09:30:32;;;;;;;2.90;2.30;;;;;;;19.23;57.84;97878.22;4107396;28;21059;-87
2023/03/18 09:32:36;;;;;;;3.17;2.40;;;;;;;19.37;59.52;97884.53;4121975;28;20741;-87
2023/03/18 09:34:39;;;;;;;3.47;2.10;;;;;;;19.43;55.49;97875.94;4118533;28;20690;-87
2023/03/18 09:36:49;;;;;;;4.20;2.57;;;;;;;19.53;57.68;97873.97;4122868;28;20646;-87
2023/03/18 09:38:52;;;;;;;3.20;2.17;;;;;;;19.55;56.18;97874.63;4120781;28;20704;-87
2023/03/18 09:41:03;;;;;;;7.70;2.10;;;;;;;19.53;55.24;97881.91;4123865;28;20620;-87
2023/03/18 09:43:19;;;;;;;3.10;1.97;;;;;;;19.50;55.20;97878.75;4124281;28;20669;-87
2023/03/18 09:45:26;;;;;;;2.90;1.90;;;;;;;19.54;55.36;97872.97;4138106;28;20632;-87
2023/03/18 09:47:59;;;;;;;2.97;1.87;;;;;;;19.50;54.16;97871.66;4117415;28;20658;-87
2023/03/18 09:50:12;;;;;;;2.60;1.63;;;;;;;19.58;52.35;97866.34;4117938;28;20637;-87
2023/03/18 09:52:19;;;;;;;5.00;2.47;;;;;;;19.67;58.03;97865.38;4128259;28;20646;-87